sensor_id;sensor_type;location;lat;lon;timestamp;temperature;humidity
10431;DHT22;5262;59.958;17.726;2023-04-24T00:02:15;2.80;99.90
10431;DHT22;5262;59.958;17.726;2023-04-24T00:04:41;2.90;99.90
10431;DHT22;5262;59.958;17.726;2023-04-24T00:07:10;2.90;99.90
10431;DHT22;5262;59.958;17.726;2023-04-24T00:09:36;2.90;99.90
10431;DHT22;5262;59.958;17.726;2023-04-24T00:12:02;2.90;99.90
10431;DHT22;5262;59.958;17.726;2023-04-24T00:14:30;2.90;99.90
10431;DHT22;5262;59.958;17.726;2023-04-24T00:16:56;2.80;99.90
10431;DHT22;5262;59.958;17.726;2023-04-24T00:19:22;2.80;99.90
10431;DHT22;5262;59.958;17.726;2023-04-24T00:21:48;2.90;99.90
10431;DHT22;5262;59.958;17.726;2023-04-24T00:24:16;2.80;99.90
10431;DHT22;5262;59.958;17.726;2023-04-24T00:26:42;2.80;99.90
10431;DHT22;5262;59.958;17.726;2023-04-24T00:29:08;2.80;99.90
10431;DHT22;5262;59.958;17.726;2023-04-24T00:31:33;2.80;99.90
10431;DHT22;5262;59.958;17.726;2023-04-24T00:34:05;2.80;99.90
10431;DHT22;5262;59.958;17.726;2023-04-24T00:36:31;2.80;99.90
10431;DHT22;5262;59.958;17.726;2023-04-24T00:38:57;2.80;99.90
10431;DHT22;5262;59.958;17.726;2023-04-24T00:41:24;2.80;99.90
10431;DHT22;5262;59.958;17.726;2023-04-24T00:43:51;2.80;99.90
10431;DHT22;5262;59.958;17.726;2023-04-24T00:46:17;2.80;99.90
10431;DHT22;5262;59.958;17.726;2023-04-24T00:48:43;2.80;99.90
10431;DHT22;5262;59.958;17.726;2023-04-24T00:51:08;2.90;99.90
10431;DHT22;5262;59.958;17.726;2023-04-24T00:53:34;2.90;99.90
10431;DHT22;5262;59.958;17.726;2023-04-24T00:56:00;2.90;99.90
10431;DHT22;5262;59.958;17.726;2023-04-24T00:58:27;3.00;99.90
10431;DHT22;5262;59.958;17.726;2023-04-24T01:00:53;2.90;99.90
10431;DHT22;5262;59.958;17.726;2023-04-24T01:03:25;2.80;99.90
10431;DHT22;5262;59.958;17.726;2023-04-24T01:05:52;2.80;99.90
10431;DHT22;5262;59.958;17.726;2023-04-24T01:08:22;2.80;99.90
10431;DHT22;5262;59.958;17.726;2023-04-24T01:10:51;2.80;99.90
10431;DHT22;5262;59.958;17.726;2023-04-24T01:13:18;2.70;99.90
10431;DHT22;5262;59.958;17.726;2023-04-24T01:15:44;2.80;99.90
10431;DHT22;5262;59.958;17.726;2023-04-24T01:18:10;2.70;99.90
10431;DHT22;5262;59.958;17.726;2023-04-24T01:20:39;2.80;99.90
10431;DHT22;5262;59.958;17.726;2023-04-24T01:23:06;2.80;99.90
10431;DHT22;5262;59.958;17.726;2023-04-24T01:25:31;2.70;99.90
10431;DHT22;5262;59.958;17.726;2023-04-24T01:27:58;2.70;99.90
10431;DHT22;5262;59.958;17.726;2023-04-24T01:30:24;2.70;99.90
10431;DHT22;5262;59.958;17.726;2023-04-24T01:32:50;2.70;99.90
10431;DHT22;5262;59.958;17.726;2023-04-24T01:35:17;2.70;99.90
10431;DHT22;5262;59.958;17.726;2023-04-24T01:37:42;2.70;99.90
10431;DHT22;5262;59.958;17.726;2023-04-24T01:40:08;2.60;99.90
10431;DHT22;5262;59.958;17.726;2023-04-24T01:42:34;2.60;99.90
10431;DHT22;5262;59.958;17.726;2023-04-24T01:45:02;2.60;99.90
10431;DHT22;5262;59.958;17.726;2023-04-24T01:47:29;2.60;99.90
10431;DHT22;5262;59.958;17.726;2023-04-24T01:49:55;2.60;99.90
10431;DHT22;5262;59.958;17.726;2023-04-24T01:52:21;2.60;99.90
10431;DHT22;5262;59.958;17.726;2023-04-24T01:54:47;2.60;99.90
10431;DHT22;5262;59.958;17.726;2023-04-24T01:57:14;2.70;99.90
10431;DHT22;5262;59.958;17.726;2023-04-24T01:59:40;2.70;99.90
10431;DHT22;5262;59.958;17.726;2023-04-24T02:02:05;2.70;99.90
10431;DHT22;5262;59.958;17.726;2023-04-24T02:04:31;2.60;99.90
10431;DHT22;5262;59.958;17.726;2023-04-24T02:06:57;2.60;99.90
10431;DHT22;5262;59.958;17.726;2023-04-24T02:09:23;2.70;99.90
10431;DHT22;5262;59.958;17.726;2023-04-24T02:11:48;2.60;99.90
10431;DHT22;5262;59.958;17.726;2023-04-24T02:14:14;2.50;99.90
10431;DHT22;5262;59.958;17.726;2023-04-24T02:16:44;2.40;99.90
10431;DHT22;5262;59.958;17.726;2023-04-24T02:19:10;2.40;99.90
10431;DHT22;5262;59.958;17.726;2023-04-24T02:21:36;2.30;99.90
10431;DHT22;5262;59.958;17.726;2023-04-24T02:24:01;2.40;99.90
10431;DHT22;5262;59.958;17.726;2023-04-24T02:26:27;2.40;99.90
10431;DHT22;5262;59.958;17.726;2023-04-24T02:28:53;2.40;99.90
10431;DHT22;5262;59.958;17.726;2023-04-24T02:31:18;2.40;99.90
10431;DHT22;5262;59.958;17.726;2023-04-24T02:33:44;2.40;99.90
10431;DHT22;5262;59.958;17.726;2023-04-24T02:36:10;2.40;99.90
10431;DHT22;5262;59.958;17.726;2023-04-24T02:38:35;2.40;99.90
10431;DHT22;5262;59.958;17.726;2023-04-24T02:41:01;2.40;99.90
10431;DHT22;5262;59.958;17.726;2023-04-24T02:43:28;2.30;99.90
10431;DHT22;5262;59.958;17.726;2023-04-24T02:45:54;2.20;99.90
10431;DHT22;5262;59.958;17.726;2023-04-24T02:48:19;2.30;99.90
10431;DHT22;5262;59.958;17.726;2023-04-24T02:50:46;2.20;99.90
10431;DHT22;5262;59.958;17.726;2023-04-24T02:53:12;2.30;99.90
10431;DHT22;5262;59.958;17.726;2023-04-24T02:55:37;2.30;99.90
10431;DHT22;5262;59.958;17.726;2023-04-24T02:58:03;2.20;99.90
10431;DHT22;5262;59.958;17.726;2023-04-24T03:00:28;2.30;99.90
10431;DHT22;5262;59.958;17.726;2023-04-24T03:02:54;2.20;99.90
10431;DHT22;5262;59.958;17.726;2023-04-24T03:05:20;2.20;99.90
10431;DHT22;5262;59.958;17.726;2023-04-24T03:07:46;2.20;99.90
10431;DHT22;5262;59.958;17.726;2023-04-24T03:10:11;2.20;99.90
10431;DHT22;5262;59.958;17.726;2023-04-24T03:12:37;2.20;99.90
10431;DHT22;5262;59.958;17.726;2023-04-24T03:15:03;2.20;99.90
10431;DHT22;5262;59.958;17.726;2023-04-24T03:17:28;2.20;99.90
10431;DHT22;5262;59.958;17.726;2023-04-24T03:19:54;2.20;99.90
10431;DHT22;5262;59.958;17.726;2023-04-24T03:22:20;2.20;99.90
10431;DHT22;5262;59.958;17.726;2023-04-24T03:24:45;2.10;99.90
10431;DHT22;5262;59.958;17.726;2023-04-24T03:27:11;2.10;99.90
10431;DHT22;5262;59.958;17.726;2023-04-24T03:29:37;2.00;99.90
10431;DHT22;5262;59.958;17.726;2023-04-24T03:32:02;2.00;99.90
10431;DHT22;5262;59.958;17.726;2023-04-24T03:34:28;2.00;99.90
10431;DHT22;5262;59.958;17.726;2023-04-24T03:36:53;2.10;99.90
10431;DHT22;5262;59.958;17.726;2023-04-24T03:39:19;2.10;99.90
10431;DHT22;5262;59.958;17.726;2023-04-24T03:41:45;2.10;99.90
10431;DHT22;5262;59.958;17.726;2023-04-24T03:44:10;2.00;99.90
10431;DHT22;5262;59.958;17.726;2023-04-24T03:46:36;2.10;99.90
10431;DHT22;5262;59.958;17.726;2023-04-24T03:49:02;2.00;99.90
10431;DHT22;5262;59.958;17.726;2023-04-24T03:51:27;2.00;99.90
10431;DHT22;5262;59.958;17.726;2023-04-24T03:53:53;2.00;99.90
10431;DHT22;5262;59.958;17.726;2023-04-24T03:56:19;2.00;99.90
10431;DHT22;5262;59.958;17.726;2023-04-24T03:58:45;2.10;99.90
10431;DHT22;5262;59.958;17.726;2023-04-24T04:01:11;1.90;99.90
10431;DHT22;5262;59.958;17.726;2023-04-24T04:03:37;1.90;99.90
10431;DHT22;5262;59.958;17.726;2023-04-24T04:06:03;2.00;99.90
10431;DHT22;5262;59.958;17.726;2023-04-24T04:08:28;2.00;99.90
10431;DHT22;5262;59.958;17.726;2023-04-24T04:10:54;2.00;99.90
10431;DHT22;5262;59.958;17.726;2023-04-24T04:13:20;2.10;99.90
10431;DHT22;5262;59.958;17.726;2023-04-24T04:15:46;2.10;99.90
10431;DHT22;5262;59.958;17.726;2023-04-24T04:18:11;2.10;99.90
10431;DHT22;5262;59.958;17.726;2023-04-24T04:20:37;2.10;99.90
10431;DHT22;5262;59.958;17.726;2023-04-24T04:23:03;2.00;99.90
10431;DHT22;5262;59.958;17.726;2023-04-24T04:25:28;2.10;99.90
10431;DHT22;5262;59.958;17.726;2023-04-24T04:27:54;2.20;99.90
10431;DHT22;5262;59.958;17.726;2023-04-24T04:30:20;2.10;99.90
10431;DHT22;5262;59.958;17.726;2023-04-24T04:32:46;2.20;99.90
10431;DHT22;5262;59.958;17.726;2023-04-24T04:35:12;2.10;99.90
10431;DHT22;5262;59.958;17.726;2023-04-24T04:37:38;2.10;99.90
10431;DHT22;5262;59.958;17.726;2023-04-24T04:40:05;2.20;99.90
10431;DHT22;5262;59.958;17.726;2023-04-24T04:42:32;2.20;99.90
10431;DHT22;5262;59.958;17.726;2023-04-24T04:45:00;2.20;99.90
10431;DHT22;5262;59.958;17.726;2023-04-24T04:47:26;2.20;99.90
10431;DHT22;5262;59.958;17.726;2023-04-24T04:49:54;2.10;99.90
10431;DHT22;5262;59.958;17.726;2023-04-24T04:52:20;2.20;99.90
10431;DHT22;5262;59.958;17.726;2023-04-24T04:54:50;2.20;99.90
10431;DHT22;5262;59.958;17.726;2023-04-24T04:57:16;2.20;99.90
10431;DHT22;5262;59.958;17.726;2023-04-24T04:59:41;2.20;99.90
10431;DHT22;5262;59.958;17.726;2023-04-24T05:02:07;2.20;99.90
10431;DHT22;5262;59.958;17.726;2023-04-24T05:04:33;2.20;99.90
10431;DHT22;5262;59.958;17.726;2023-04-24T05:06:58;2.20;99.90
10431;DHT22;5262;59.958;17.726;2023-04-24T05:09:24;2.20;99.90
10431;DHT22;5262;59.958;17.726;2023-04-24T05:11:52;2.30;99.90
10431;DHT22;5262;59.958;17.726;2023-04-24T05:14:18;2.40;99.90
10431;DHT22;5262;59.958;17.726;2023-04-24T05:16:44;2.30;99.90
10431;DHT22;5262;59.958;17.726;2023-04-24T05:19:10;2.30;99.90
10431;DHT22;5262;59.958;17.726;2023-04-24T05:21:37;2.30;99.90
10431;DHT22;5262;59.958;17.726;2023-04-24T05:24:03;2.20;99.90
10431;DHT22;5262;59.958;17.726;2023-04-24T05:26:28;2.30;99.90
10431;DHT22;5262;59.958;17.726;2023-04-24T05:28:54;2.40;99.90
10431;DHT22;5262;59.958;17.726;2023-04-24T05:31:20;2.40;99.90
10431;DHT22;5262;59.958;17.726;2023-04-24T05:33:45;2.50;99.90
10431;DHT22;5262;59.958;17.726;2023-04-24T05:36:11;2.40;99.90
10431;DHT22;5262;59.958;17.726;2023-04-24T05:38:36;2.60;99.90
10431;DHT22;5262;59.958;17.726;2023-04-24T05:41:02;2.60;99.90
10431;DHT22;5262;59.958;17.726;2023-04-24T05:43:28;2.50;99.90
10431;DHT22;5262;59.958;17.726;2023-04-24T05:45:53;2.50;99.90
10431;DHT22;5262;59.958;17.726;2023-04-24T05:48:19;2.50;99.90
10431;DHT22;5262;59.958;17.726;2023-04-24T05:50:45;2.60;99.90
10431;DHT22;5262;59.958;17.726;2023-04-24T05:53:12;2.40;99.90
10431;DHT22;5262;59.958;17.726;2023-04-24T05:55:38;2.50;99.90
10431;DHT22;5262;59.958;17.726;2023-04-24T05:58:03;2.50;99.90
10431;DHT22;5262;59.958;17.726;2023-04-24T06:00:30;2.60;99.90
10431;DHT22;5262;59.958;17.726;2023-04-24T06:02:55;2.50;99.90
10431;DHT22;5262;59.958;17.726;2023-04-24T06:05:21;2.50;99.90
10431;DHT22;5262;59.958;17.726;2023-04-24T06:07:47;2.60;99.90
10431;DHT22;5262;59.958;17.726;2023-04-24T06:10:13;2.60;99.90
10431;DHT22;5262;59.958;17.726;2023-04-24T06:12:39;2.60;99.90
10431;DHT22;5262;59.958;17.726;2023-04-24T06:15:05;2.50;99.90
10431;DHT22;5262;59.958;17.726;2023-04-24T06:17:31;2.50;99.90
10431;DHT22;5262;59.958;17.726;2023-04-24T06:19:57;2.60;99.90
10431;DHT22;5262;59.958;17.726;2023-04-24T06:22:23;2.50;99.90
10431;DHT22;5262;59.958;17.726;2023-04-24T06:24:48;2.70;99.90
10431;DHT22;5262;59.958;17.726;2023-04-24T06:27:14;2.80;99.90
10431;DHT22;5262;59.958;17.726;2023-04-24T06:29:40;2.90;99.90
10431;DHT22;5262;59.958;17.726;2023-04-24T06:32:05;2.80;99.90
10431;DHT22;5262;59.958;17.726;2023-04-24T06:34:31;2.80;99.90
10431;DHT22;5262;59.958;17.726;2023-04-24T06:36:59;2.90;99.90
10431;DHT22;5262;59.958;17.726;2023-04-24T06:39:24;2.80;99.90
10431;DHT22;5262;59.958;17.726;2023-04-24T06:41:50;2.90;99.90
10431;DHT22;5262;59.958;17.726;2023-04-24T06:44:16;3.00;99.90
10431;DHT22;5262;59.958;17.726;2023-04-24T06:46:42;2.80;99.90
10431;DHT22;5262;59.958;17.726;2023-04-24T06:49:07;2.90;99.90
10431;DHT22;5262;59.958;17.726;2023-04-24T06:51:33;3.00;99.90
10431;DHT22;5262;59.958;17.726;2023-04-24T06:53:59;3.10;99.90
10431;DHT22;5262;59.958;17.726;2023-04-24T06:56:26;3.00;99.90
10431;DHT22;5262;59.958;17.726;2023-04-24T06:58:51;3.10;99.90
10431;DHT22;5262;59.958;17.726;2023-04-24T07:01:17;3.20;99.90
10431;DHT22;5262;59.958;17.726;2023-04-24T07:03:43;3.30;99.90
10431;DHT22;5262;59.958;17.726;2023-04-24T07:06:09;3.30;99.90
10431;DHT22;5262;59.958;17.726;2023-04-24T07:08:36;3.40;99.90
10431;DHT22;5262;59.958;17.726;2023-04-24T07:11:02;3.40;99.90
10431;DHT22;5262;59.958;17.726;2023-04-24T07:13:28;3.30;99.90
10431;DHT22;5262;59.958;17.726;2023-04-24T07:15:54;3.40;99.90
10431;DHT22;5262;59.958;17.726;2023-04-24T07:18:21;3.40;99.90
10431;DHT22;5262;59.958;17.726;2023-04-24T07:20:47;3.30;99.90
10431;DHT22;5262;59.958;17.726;2023-04-24T07:23:13;3.30;99.90
10431;DHT22;5262;59.958;17.726;2023-04-24T07:25:39;3.50;99.90
10431;DHT22;5262;59.958;17.726;2023-04-24T07:28:08;3.40;99.90
10431;DHT22;5262;59.958;17.726;2023-04-24T07:30:33;3.40;99.90
10431;DHT22;5262;59.958;17.726;2023-04-24T07:32:59;3.60;99.90
10431;DHT22;5262;59.958;17.726;2023-04-24T07:35:26;3.60;99.90
10431;DHT22;5262;59.958;17.726;2023-04-24T07:37:55;3.60;99.90
10431;DHT22;5262;59.958;17.726;2023-04-24T07:40:21;3.50;99.90
10431;DHT22;5262;59.958;17.726;2023-04-24T07:42:47;3.50;99.90
10431;DHT22;5262;59.958;17.726;2023-04-24T07:45:16;3.50;99.90
10431;DHT22;5262;59.958;17.726;2023-04-24T07:47:42;3.50;99.90
10431;DHT22;5262;59.958;17.726;2023-04-24T07:50:09;3.70;99.90
10431;DHT22;5262;59.958;17.726;2023-04-24T07:52:35;3.50;99.90
10431;DHT22;5262;59.958;17.726;2023-04-24T07:55:02;3.70;99.90
10431;DHT22;5262;59.958;17.726;2023-04-24T07:57:28;3.60;99.90
10431;DHT22;5262;59.958;17.726;2023-04-24T07:59:54;3.70;99.90
10431;DHT22;5262;59.958;17.726;2023-04-24T08:02:19;3.70;99.90
10431;DHT22;5262;59.958;17.726;2023-04-24T08:04:47;3.80;99.90
10431;DHT22;5262;59.958;17.726;2023-04-24T08:07:12;3.90;99.90
10431;DHT22;5262;59.958;17.726;2023-04-24T08:09:38;3.80;99.90
10431;DHT22;5262;59.958;17.726;2023-04-24T08:12:04;3.70;99.90
10431;DHT22;5262;59.958;17.726;2023-04-24T08:14:30;3.70;99.90
10431;DHT22;5262;59.958;17.726;2023-04-24T08:16:55;3.70;99.90
10431;DHT22;5262;59.958;17.726;2023-04-24T08:19:21;3.70;99.90
10431;DHT22;5262;59.958;17.726;2023-04-24T08:21:47;3.70;99.90
10431;DHT22;5262;59.958;17.726;2023-04-24T08:24:13;4.00;99.90
10431;DHT22;5262;59.958;17.726;2023-04-24T08:26:39;4.10;99.90
10431;DHT22;5262;59.958;17.726;2023-04-24T08:29:05;4.20;99.90
10431;DHT22;5262;59.958;17.726;2023-04-24T08:31:32;4.20;99.90
10431;DHT22;5262;59.958;17.726;2023-04-24T08:33:58;4.30;99.90
10431;DHT22;5262;59.958;17.726;2023-04-24T08:36:25;4.40;99.90
10431;DHT22;5262;59.958;17.726;2023-04-24T08:38:51;4.30;99.90
10431;DHT22;5262;59.958;17.726;2023-04-24T08:41:18;4.10;99.90
10431;DHT22;5262;59.958;17.726;2023-04-24T08:43:46;4.00;99.90
10431;DHT22;5262;59.958;17.726;2023-04-24T08:46:13;4.10;99.90
10431;DHT22;5262;59.958;17.726;2023-04-24T08:48:39;4.10;99.90
10431;DHT22;5262;59.958;17.726;2023-04-24T08:51:08;3.90;99.90
10431;DHT22;5262;59.958;17.726;2023-04-24T08:53:35;3.90;99.90
10431;DHT22;5262;59.958;17.726;2023-04-24T08:56:02;4.00;99.90
10431;DHT22;5262;59.958;17.726;2023-04-24T08:58:28;3.90;99.90
10431;DHT22;5262;59.958;17.726;2023-04-24T09:00:55;4.10;99.90
10431;DHT22;5262;59.958;17.726;2023-04-24T09:03:22;4.10;99.90
10431;DHT22;5262;59.958;17.726;2023-04-24T09:05:49;4.10;99.90
10431;DHT22;5262;59.958;17.726;2023-04-24T09:08:18;4.00;99.90
10431;DHT22;5262;59.958;17.726;2023-04-24T09:10:44;4.10;99.90
10431;DHT22;5262;59.958;17.726;2023-04-24T09:13:10;4.10;99.90
10431;DHT22;5262;59.958;17.726;2023-04-24T09:15:40;3.80;99.90
10431;DHT22;5262;59.958;17.726;2023-04-24T09:18:06;4.00;99.90
10431;DHT22;5262;59.958;17.726;2023-04-24T09:20:32;4.10;99.90
10431;DHT22;5262;59.958;17.726;2023-04-24T09:22:58;4.10;99.90
10431;DHT22;5262;59.958;17.726;2023-04-24T09:25:34;4.30;99.90
10431;DHT22;5262;59.958;17.726;2023-04-24T09:28:04;4.30;99.90
10431;DHT22;5262;59.958;17.726;2023-04-24T09:30:32;4.50;99.90
10431;DHT22;5262;59.958;17.726;2023-04-24T09:33:14;4.20;99.90
10431;DHT22;5262;59.958;17.726;2023-04-24T09:35:41;4.40;99.90
10431;DHT22;5262;59.958;17.726;2023-04-24T09:38:08;4.30;99.90
10431;DHT22;5262;59.958;17.726;2023-04-24T09:53:46;4.20;99.90
10431;DHT22;5262;59.958;17.726;2023-04-24T12:56:24;4.80;99.90
10431;DHT22;5262;59.958;17.726;2023-04-24T12:58:50;4.80;99.90
10431;DHT22;5262;59.958;17.726;2023-04-24T16:51:35;3.10;99.90
10431;DHT22;5262;59.958;17.726;2023-04-24T16:54:01;3.20;99.90
10431;DHT22;5262;59.958;17.726;2023-04-24T16:56:27;3.10;99.90
10431;DHT22;5262;59.958;17.726;2023-04-24T16:58:52;3.10;99.90
10431;DHT22;5262;59.958;17.726;2023-04-24T17:01:18;3.10;99.90
10431;DHT22;5262;59.958;17.726;2023-04-24T17:03:43;3.10;99.90
10431;DHT22;5262;59.958;17.726;2023-04-24T17:06:09;3.00;99.90
10431;DHT22;5262;59.958;17.726;2023-04-24T17:08:35;3.00;99.90
10431;DHT22;5262;59.958;17.726;2023-04-24T17:11:01;3.00;99.90
10431;DHT22;5262;59.958;17.726;2023-04-24T17:13:26;3.00;99.90
10431;DHT22;5262;59.958;17.726;2023-04-24T17:15:52;3.10;99.90
10431;DHT22;5262;59.958;17.726;2023-04-24T17:18:17;3.00;99.90
10431;DHT22;5262;59.958;17.726;2023-04-24T17:20:44;2.90;99.90
10431;DHT22;5262;59.958;17.726;2023-04-24T17:23:09;2.80;99.90
10431;DHT22;5262;59.958;17.726;2023-04-24T17:25:38;2.90;99.90
10431;DHT22;5262;59.958;17.726;2023-04-24T17:28:14;2.80;99.90
10431;DHT22;5262;59.958;17.726;2023-04-24T17:30:46;2.90;99.90
10431;DHT22;5262;59.958;17.726;2023-04-24T17:33:11;2.70;99.90
10431;DHT22;5262;59.958;17.726;2023-04-24T17:35:37;2.80;99.90
10431;DHT22;5262;59.958;17.726;2023-04-24T17:38:02;2.80;99.90
10431;DHT22;5262;59.958;17.726;2023-04-24T17:40:28;2.80;99.90
10431;DHT22;5262;59.958;17.726;2023-04-24T17:42:53;2.80;99.90
10431;DHT22;5262;59.958;17.726;2023-04-24T17:45:19;2.70;99.90
10431;DHT22;5262;59.958;17.726;2023-04-24T17:47:45;2.60;99.90
10431;DHT22;5262;59.958;17.726;2023-04-24T17:50:11;2.60;99.90
10431;DHT22;5262;59.958;17.726;2023-04-24T17:52:36;2.60;99.90
10431;DHT22;5262;59.958;17.726;2023-04-24T17:55:02;2.70;99.90
10431;DHT22;5262;59.958;17.726;2023-04-24T17:57:28;2.60;99.90
10431;DHT22;5262;59.958;17.726;2023-04-24T17:59:54;2.60;99.90
10431;DHT22;5262;59.958;17.726;2023-04-24T18:02:19;2.70;99.90
10431;DHT22;5262;59.958;17.726;2023-04-24T18:04:45;2.60;99.90
10431;DHT22;5262;59.958;17.726;2023-04-24T18:07:11;2.60;99.90
10431;DHT22;5262;59.958;17.726;2023-04-24T18:09:36;2.60;99.90
10431;DHT22;5262;59.958;17.726;2023-04-24T18:12:02;2.50;99.90
10431;DHT22;5262;59.958;17.726;2023-04-24T18:14:28;2.50;99.90
10431;DHT22;5262;59.958;17.726;2023-04-24T18:16:54;2.50;99.90
10431;DHT22;5262;59.958;17.726;2023-04-24T18:19:19;2.60;99.90
10431;DHT22;5262;59.958;17.726;2023-04-24T18:21:45;2.60;99.90
10431;DHT22;5262;59.958;17.726;2023-04-24T18:24:10;2.60;99.90
10431;DHT22;5262;59.958;17.726;2023-04-24T18:26:36;2.70;99.90
10431;DHT22;5262;59.958;17.726;2023-04-24T18:29:02;2.60;99.90
10431;DHT22;5262;59.958;17.726;2023-04-24T18:31:27;2.60;99.90
10431;DHT22;5262;59.958;17.726;2023-04-24T18:33:53;2.70;99.90
10431;DHT22;5262;59.958;17.726;2023-04-24T18:36:20;2.60;99.90
10431;DHT22;5262;59.958;17.726;2023-04-24T18:38:45;2.60;99.90
10431;DHT22;5262;59.958;17.726;2023-04-24T18:41:11;2.60;99.90
10431;DHT22;5262;59.958;17.726;2023-04-24T18:43:38;2.60;99.90
10431;DHT22;5262;59.958;17.726;2023-04-24T18:46:04;2.60;99.90
10431;DHT22;5262;59.958;17.726;2023-04-24T18:48:29;2.50;99.90
10431;DHT22;5262;59.958;17.726;2023-04-24T18:50:56;2.50;99.90
10431;DHT22;5262;59.958;17.726;2023-04-24T18:53:21;2.40;99.90
10431;DHT22;5262;59.958;17.726;2023-04-24T18:55:47;2.40;99.90
10431;DHT22;5262;59.958;17.726;2023-04-24T18:58:12;2.50;99.90
10431;DHT22;5262;59.958;17.726;2023-04-24T19:00:38;2.50;99.90
10431;DHT22;5262;59.958;17.726;2023-04-24T19:03:04;2.40;99.90
10431;DHT22;5262;59.958;17.726;2023-04-24T19:05:30;2.40;99.90
10431;DHT22;5262;59.958;17.726;2023-04-24T19:07:55;2.50;99.90
10431;DHT22;5262;59.958;17.726;2023-04-24T19:10:21;2.50;99.90
10431;DHT22;5262;59.958;17.726;2023-04-24T19:12:46;2.50;99.90
10431;DHT22;5262;59.958;17.726;2023-04-24T19:15:14;2.50;99.90
10431;DHT22;5262;59.958;17.726;2023-04-24T19:17:39;2.50;99.90
10431;DHT22;5262;59.958;17.726;2023-04-24T19:20:05;2.40;99.90
10431;DHT22;5262;59.958;17.726;2023-04-24T19:22:31;2.40;99.90
10431;DHT22;5262;59.958;17.726;2023-04-24T19:24:57;2.40;99.90
10431;DHT22;5262;59.958;17.726;2023-04-24T19:27:23;2.40;99.90
10431;DHT22;5262;59.958;17.726;2023-04-24T19:29:49;2.40;99.90
10431;DHT22;5262;59.958;17.726;2023-04-24T19:32:16;2.50;99.90
10431;DHT22;5262;59.958;17.726;2023-04-24T19:34:42;2.40;99.90
10431;DHT22;5262;59.958;17.726;2023-04-24T19:37:07;2.40;99.90
10431;DHT22;5262;59.958;17.726;2023-04-24T19:39:33;2.40;99.90
10431;DHT22;5262;59.958;17.726;2023-04-24T19:41:59;2.40;99.90
10431;DHT22;5262;59.958;17.726;2023-04-24T19:44:25;2.40;99.90
10431;DHT22;5262;59.958;17.726;2023-04-24T19:46:51;2.30;99.90
10431;DHT22;5262;59.958;17.726;2023-04-24T19:49:17;2.30;99.90
10431;DHT22;5262;59.958;17.726;2023-04-24T19:51:43;2.40;99.90
10431;DHT22;5262;59.958;17.726;2023-04-24T19:54:08;2.30;99.90
10431;DHT22;5262;59.958;17.726;2023-04-24T19:56:34;2.20;99.90
10431;DHT22;5262;59.958;17.726;2023-04-24T19:59:00;2.20;99.90
10431;DHT22;5262;59.958;17.726;2023-04-24T20:01:25;2.20;99.90
10431;DHT22;5262;59.958;17.726;2023-04-24T20:03:51;2.30;99.90
10431;DHT22;5262;59.958;17.726;2023-04-24T20:06:17;2.20;99.90
10431;DHT22;5262;59.958;17.726;2023-04-24T20:08:42;2.20;99.90
10431;DHT22;5262;59.958;17.726;2023-04-24T20:11:09;2.20;99.90
10431;DHT22;5262;59.958;17.726;2023-04-24T20:13:34;2.20;99.90
10431;DHT22;5262;59.958;17.726;2023-04-24T20:16:00;2.30;99.90
10431;DHT22;5262;59.958;17.726;2023-04-24T20:18:26;2.20;99.90
10431;DHT22;5262;59.958;17.726;2023-04-24T20:20:54;2.20;99.90
10431;DHT22;5262;59.958;17.726;2023-04-24T20:23:24;2.30;99.90
10431;DHT22;5262;59.958;17.726;2023-04-24T20:25:50;2.20;99.90
10431;DHT22;5262;59.958;17.726;2023-04-24T20:28:26;2.30;99.90
10431;DHT22;5262;59.958;17.726;2023-04-24T20:30:52;2.30;99.90
10431;DHT22;5262;59.958;17.726;2023-04-24T20:33:18;2.30;99.90
10431;DHT22;5262;59.958;17.726;2023-04-24T20:35:44;2.30;99.90
10431;DHT22;5262;59.958;17.726;2023-04-24T20:38:09;2.20;99.90
10431;DHT22;5262;59.958;17.726;2023-04-24T20:40:36;2.30;99.90
10431;DHT22;5262;59.958;17.726;2023-04-24T20:43:02;2.20;99.90
10431;DHT22;5262;59.958;17.726;2023-04-24T20:45:28;2.20;99.90
10431;DHT22;5262;59.958;17.726;2023-04-24T20:47:54;2.20;99.90
10431;DHT22;5262;59.958;17.726;2023-04-24T20:50:20;2.20;99.90
10431;DHT22;5262;59.958;17.726;2023-04-24T20:52:45;2.20;99.90
10431;DHT22;5262;59.958;17.726;2023-04-24T20:55:11;2.10;99.90
10431;DHT22;5262;59.958;17.726;2023-04-24T20:57:37;2.20;99.90
10431;DHT22;5262;59.958;17.726;2023-04-24T21:00:03;2.20;99.90
10431;DHT22;5262;59.958;17.726;2023-04-24T21:02:35;2.20;99.90
10431;DHT22;5262;59.958;17.726;2023-04-24T21:05:00;2.10;99.90
10431;DHT22;5262;59.958;17.726;2023-04-24T21:07:26;2.10;99.90
10431;DHT22;5262;59.958;17.726;2023-04-24T21:09:51;2.10;99.90
10431;DHT22;5262;59.958;17.726;2023-04-24T21:12:17;2.10;99.90
10431;DHT22;5262;59.958;17.726;2023-04-24T21:14:43;2.10;99.90
10431;DHT22;5262;59.958;17.726;2023-04-24T21:17:08;2.10;99.90
10431;DHT22;5262;59.958;17.726;2023-04-24T21:19:34;2.10;99.90
10431;DHT22;5262;59.958;17.726;2023-04-24T21:22:00;2.20;99.90
10431;DHT22;5262;59.958;17.726;2023-04-24T21:24:26;2.20;99.90
10431;DHT22;5262;59.958;17.726;2023-04-24T21:26:51;2.20;99.90
10431;DHT22;5262;59.958;17.726;2023-04-24T21:29:17;2.10;99.90
10431;DHT22;5262;59.958;17.726;2023-04-24T21:31:43;2.20;99.90
10431;DHT22;5262;59.958;17.726;2023-04-24T21:34:08;2.10;99.90
10431;DHT22;5262;59.958;17.726;2023-04-24T21:36:34;2.10;99.90
10431;DHT22;5262;59.958;17.726;2023-04-24T21:39:00;2.10;99.90
10431;DHT22;5262;59.958;17.726;2023-04-24T21:41:25;2.10;99.90
10431;DHT22;5262;59.958;17.726;2023-04-24T21:43:51;2.10;99.90
10431;DHT22;5262;59.958;17.726;2023-04-24T21:46:17;2.10;99.90
10431;DHT22;5262;59.958;17.726;2023-04-24T21:48:43;2.10;99.90
10431;DHT22;5262;59.958;17.726;2023-04-24T21:51:08;2.10;99.90
10431;DHT22;5262;59.958;17.726;2023-04-24T21:53:34;2.10;99.90
10431;DHT22;5262;59.958;17.726;2023-04-24T21:56:00;2.10;99.90
10431;DHT22;5262;59.958;17.726;2023-04-24T21:58:26;2.00;99.90
10431;DHT22;5262;59.958;17.726;2023-04-24T22:00:52;2.00;99.90
10431;DHT22;5262;59.958;17.726;2023-04-24T22:03:17;2.00;99.90
10431;DHT22;5262;59.958;17.726;2023-04-24T22:05:43;2.00;99.90
10431;DHT22;5262;59.958;17.726;2023-04-24T22:08:09;2.00;99.90
10431;DHT22;5262;59.958;17.726;2023-04-24T22:10:35;2.00;99.90
10431;DHT22;5262;59.958;17.726;2023-04-24T22:13:02;2.00;99.90
10431;DHT22;5262;59.958;17.726;2023-04-24T22:15:27;2.00;99.90
10431;DHT22;5262;59.958;17.726;2023-04-24T22:17:53;2.00;99.90
10431;DHT22;5262;59.958;17.726;2023-04-24T22:20:19;2.00;99.90
10431;DHT22;5262;59.958;17.726;2023-04-24T22:22:46;2.00;99.90
10431;DHT22;5262;59.958;17.726;2023-04-24T22:25:12;2.00;99.90
10431;DHT22;5262;59.958;17.726;2023-04-24T22:27:38;2.00;99.90
10431;DHT22;5262;59.958;17.726;2023-04-24T22:30:04;2.00;99.90
10431;DHT22;5262;59.958;17.726;2023-04-24T22:32:30;2.00;99.90
10431;DHT22;5262;59.958;17.726;2023-04-24T22:34:57;2.00;99.90
10431;DHT22;5262;59.958;17.726;2023-04-24T22:37:23;2.00;99.90
10431;DHT22;5262;59.958;17.726;2023-04-24T22:39:48;1.90;99.90
10431;DHT22;5262;59.958;17.726;2023-04-24T22:42:14;2.00;99.90